Pagrindinis puslapis
METAR-TAF:

METAR-TAF

Oro uostai :

Dublino oro uostas

Dublinas, Airijos sala

platuma: 53-26N, ilguma: 006-15W, Aukštis: 68 m

Dabartinis oras

Ataskaita buvo paskelbta 18 minutes, ne 20:00 UTC
Vėjas 6 kt iš Rytų
Temperatūra 14°C
Drėgmė 63%
Slėgis 1021 hPa
Matomumas 10 km arba daugiau
nėra debesų žemiau 1500 m ir nėra kamuolinių lietaus debesų

METAR: EIDW 302000Z 10006KT CAVOK 14/07 Q1021 NOSIG

Laikas: 21:18 (20:18 UTC)

Prognozė

Ataskaita buvo paskelbta 3 valandos ir 18 minutes, ne 17:00 UTC
Prognozė galioja nuo 30 metu 18 UTC su 31 metu 18 UTC
Vėjas 10 kt iš Rytų
Matomumas 10 km arba daugiau
Mažai debesys ne aukštis 3500 ft
Tapsmas
nuo 30 metu 20 UTC su 30 metu 22 UTC
Vėjas 3 kt nuo kintamojo kryptimis
Tapsmas
nuo 31 metu 04 UTC su 31 metu 06 UTC
Vėjas 8 kt iš Pietryčių
Tapsmas
nuo 31 metu 10 UTC su 31 metu 12 UTC
Vėjas 9 kt iš Rytų

TAF: EIDW 301700Z 3018/3118 09010KT 9999 FEW035 BECMG 3020/3022 VRB03KT BECMG 3104/3106 13008KT BECMG 3110/3112 09009KT

Orai ataskaitas ir orų prognozės (METAR, TAF).

turimą stotys yra geltonos ir raudonos taškus žemėlapyje.

Perkelti pele per norėdami pamatyti stoties vardą.

Tada spustelėkite, norėdami matyti oro stebėjimo ir prognozės.

Norėdami pakeisti žemėlapį: spustelėkite ant žalios mygtukų su juodo kryžiaus žemyn,; žalią mygtuką su brūkšneliu, jei norite nutolinti; arba žalių rodyklių gretimoms žemėlapius.


METAR-TAF: